Time;durP1;ratioP1;P1;durP2;ratioP2;P2;SDS_P1;SDS_P2;PMS_P1;PMS_P2;Temp;Humidity;BMP_temperature;BMP_pressure;BME280_temperature;BME280_humidity;BME280_pressure;Samples;Min_cycle;Max_cycle;Signal;HPM_P1;HPM_P2
2021/03/28 00:02:17;;;;;;;26.97;14.50;;;;;;;5.78;76.70;100018.06;4309853;81;21251;-89
2021/03/28 00:08:26;;;;;;;24.32;15.05;;;;;;;5.79;76.84;100012.86;4327593;81;22106;-89
2021/03/28 00:14:54;;;;;;;24.35;14.23;;;;;;;5.85;76.88;100006.98;4462962;78;21782;-91
2021/03/28 00:21:22;;;;;;;24.55;15.08;;;;;;;5.92;76.59;100008.65;4434047;78;21152;-90
2021/03/28 00:27:28;;;;;;;23.22;15.25;;;;;;;5.53;76.30;100016.89;4451439;78;21696;-89
2021/03/28 00:33:31;;;;;;;25.27;13.93;;;;;;;5.59;76.53;100010.19;4345044;80;21383;-90
2021/03/28 00:39:49;;;;;;;23.87;15.43;;;;;;;5.63;77.29;100021.22;4300957;81;21343;-89
2021/03/28 00:45:57;;;;;;;25.43;13.68;;;;;;;5.80;77.02;100024.77;4312053;81;21722;-89
2021/03/28 00:52:05;;;;;;;27.75;17.32;;;;;;;5.90;77.24;100035.92;4310077;81;21220;-90
2021/03/28 00:58:18;;;;;;;25.88;15.70;;;;;;;5.71;77.22;100036.19;4317553;81;21189;-89
2021/03/28 01:05:13;;;;;;;27.50;16.95;;;;;;;5.67;77.42;100041.22;4354787;82;21493;-90
2021/03/28 01:11:44;;;;;;;26.77;16.45;;;;;;;5.75;76.99;100050.72;4237609;84;21220;-90
2021/03/28 01:18:28;;;;;;;25.10;16.90;;;;;;;5.87;77.53;100052.86;4241383;81;21122;-90
2021/03/28 01:24:51;;;;;;;25.82;16.80;;;;;;;5.94;77.12;100045.02;4276308;81;21187;-90
2021/03/28 01:31:03;;;;;;;27.98;18.60;;;;;;;5.93;77.33;100051.58;4322494;81;21648;-90
2021/03/28 01:37:25;;;;;;;26.80;18.48;;;;;;;5.82;77.31;100057.89;4291834;81;21203;-89
2021/03/28 01:44:01;;;;;;;16.23;8.63;;;;;;;5.79;77.38;100056.33;4304892;81;21648;-90
2021/03/28 01:50:36;;;;;;;17.27;8.05;;;;;;;5.58;77.01;100065.64;4293349;81;21141;-91
2021/03/28 01:56:52;;;;;;;14.70;8.23;;;;;;;5.62;76.55;100049.52;4303436;81;21377;-91
2021/03/28 02:03:32;;;;;;;16.73;8.93;;;;;;;5.60;76.68;100048.47;4306144;81;21176;-91
2021/03/28 02:10:15;;;;;;;17.15;9.28;;;;;;;5.63;76.23;100049.75;4286868;82;21154;-91
2021/03/28 02:16:35;;;;;;;15.90;9.45;;;;;;;5.39;75.88;100050.71;4270888;82;21265;-92
2021/03/28 02:22:51;;;;;;;16.65;9.20;;;;;;;5.14;76.84;100059.59;4414640;79;21181;-90
2021/03/28 02:29:14;;;;;;;15.58;9.15;;;;;;;5.07;76.83;100069.54;4422164;79;21169;-90
2021/03/28 02:35:24;;;;;;;25.70;14.83;;;;;;;5.14;77.79;100078.02;4430668;78;22418;-90
2021/03/28 02:41:41;;;;;;;25.75;14.93;;;;;;;5.15;77.70;100086.42;4327391;81;21203;-89
2021/03/28 02:48:03;;;;;;;27.05;15.68;;;;;;;5.30;77.83;100083.28;4235866;82;22418;-91
2021/03/28 02:54:16;;;;;;;25.40;12.15;;;;;;;5.33;77.79;100097.58;4338266;81;21141;-89
2021/03/28 03:00:29;;;;;;;19.75;12.05;;;;;;;5.21;77.87;100108.79;4329873;81;21904;-89
2021/03/28 03:07:13;;;;;;;19.60;9.68;;;;;;;5.14;77.70;100112.52;4348946;81;21197;-89
2021/03/28 03:13:44;;;;;;;21.02;10.23;;;;;;;4.90;77.58;100128.34;4331541;81;21219;-88
2021/03/28 03:20:22;;;;;;;15.20;8.28;;;;;;;4.73;78.03;100137.96;4328829;81;21167;-90
2021/03/28 03:26:48;;;;;;;13.60;7.30;;;;;;;4.67;78.35;100146.53;4331303;81;21230;-89
2021/03/28 03:33:07;;;;;;;16.97;6.53;;;;;;;4.63;78.24;100153.14;4355085;81;21688;-89
2021/03/28 03:39:32;;;;;;;17.62;8.95;;;;;;;4.61;78.36;100163.49;4334305;81;21235;-90
2021/03/28 03:45:59;;;;;;;17.75;8.53;;;;;;;4.57;78.16;100165.77;4329485;81;21197;-90
2021/03/28 03:52:25;;;;;;;18.45;8.18;;;;;;;4.49;78.26;100167.86;4345536;81;21689;-89
2021/03/28 03:58:41;;;;;;;17.67;8.50;;;;;;;4.46;77.77;100171.19;4330664;79;21304;-88
2021/03/28 04:04:57;;;;;;;16.85;6.87;;;;;;;4.43;77.64;100183.42;4281160;81;21214;-89
2021/03/28 04:11:33;;;;;;;14.40;6.27;;;;;;;4.35;77.24;100194.20;4335353;81;21149;-90
2021/03/28 04:17:53;;;;;;;17.23;5.50;;;;;;;4.23;77.12;100208.27;4348176;81;21204;-89
2021/03/28 04:24:10;;;;;;;11.45;5.42;;;;;;;4.06;77.27;100218.94;4321656;81;21291;-89
2021/03/28 04:30:50;;;;;;;8.37;4.40;;;;;;;3.95;77.01;100217.54;4332619;81;21183;-90
2021/03/28 04:37:35;;;;;;;17.07;5.55;;;;;;;3.94;77.01;100228.14;4325260;81;21680;-91
2021/03/28 04:44:16;;;;;;;13.93;5.28;;;;;;;3.83;76.66;100235.40;4333644;81;21190;-89
2021/03/28 04:50:43;;;;;;;19.73;6.60;;;;;;;3.71;77.05;100247.28;4294061;81;21908;-89
2021/03/28 04:57:21;;;;;;;17.77;6.25;;;;;;;3.58;77.16;100260.24;4320647;81;21188;-92
2021/03/28 05:03:56;;;;;;;17.65;6.15;;;;;;;3.21;76.98;100261.17;4350849;81;22321;-89
2021/03/28 05:10:32;;;;;;;17.62;8.48;;;;;;;3.30;77.46;100273.47;4445006;78;21216;-91
2021/03/28 05:17:06;;;;;;;17.12;7.67;;;;;;;3.55;78.31;100279.26;4458912;78;21185;-90
2021/03/28 05:23:50;;;;;;;17.17;8.65;;;;;;;3.85;78.21;100281.42;4294359;81;21656;-91
2021/03/28 05:30:02;;;;;;;12.63;7.42;;;;;;;4.02;77.86;100281.63;4310370;81;21602;-89
2021/03/28 05:36:47;;;;;;;20.77;8.53;;;;;;;4.06;77.90;100292.10;4314211;81;21203;-89
2021/03/28 05:43:39;;;;;;;14.70;7.87;;;;;;;4.04;77.64;100298.94;4347677;81;21346;-91
2021/03/28 05:50:13;;;;;;;21.68;9.28;;;;;;;4.10;77.57;100297.16;4449645;78;21678;-89
2021/03/28 05:56:53;;;;;;;19.02;8.98;;;;;;;4.14;77.76;100310.38;4286347;81;21383;-90
2021/03/28 06:03:55;;;;;;;17.05;8.68;;;;;;;4.32;77.78;100314.09;4327214;81;21123;-91
2021/03/28 06:10:36;;;;;;;17.85;7.97;;;;;;;4.59;77.54;100320.28;4339636;81;21193;-89
2021/03/28 06:17:08;;;;;;;19.80;9.18;;;;;;;4.77;77.11;100331.58;4315853;81;21523;-90
2021/03/28 06:23:46;;;;;;;15.85;8.93;;;;;;;4.70;77.00;100337.95;4338687;81;21212;-90
2021/03/28 06:30:36;;;;;;;19.62;9.35;;;;;;;4.68;77.03;100346.94;4343456;81;21656;-89
2021/03/28 06:37:03;;;;;;;21.65;10.40;;;;;;;4.76;76.93;100357.66;4310550;81;21232;-91
2021/03/28 06:43:43;;;;;;;22.13;10.45;;;;;;;4.68;76.73;100365.14;4330883;81;21241;-90
2021/03/28 06:50:16;;;;;;;17.23;8.43;;;;;;;4.95;77.07;100362.37;4338944;81;21196;-90
2021/03/28 06:56:51;;;;;;;14.10;8.53;;;;;;;5.31;76.78;100365.11;4337031;81;21178;-91
2021/03/28 07:03:36;;;;;;;13.28;7.95;;;;;;;5.38;76.08;100364.11;4285711;81;21657;-90
2021/03/28 07:10:18;;;;;;;15.70;8.05;;;;;;;5.41;75.94;100371.09;4312513;81;21229;-91
2021/03/28 07:16:31;;;;;;;17.23;9.35;;;;;;;5.45;76.10;100379.44;4442515;78;21165;-91
2021/03/28 07:22:56;;;;;;;16.62;9.75;;;;;;;5.65;76.28;100377.59;4323023;81;21225;-92
2021/03/28 07:29:44;;;;;;;15.80;9.45;;;;;;;6.04;75.37;100377.70;4316689;81;21164;-92
2021/03/28 07:36:09;;;;;;;17.93;9.23;;;;;;;6.02;74.71;100384.81;4325435;81;22370;-91
2021/03/28 07:43:06;;;;;;;11.00;6.58;;;;;;;6.23;74.47;100387.80;4306033;81;21207;-91
2021/03/28 07:49:49;;;;;;;19.40;7.45;;;;;;;6.01;73.17;100398.14;4331144;81;21192;-91
2021/03/28 07:56:08;;;;;;;10.68;6.33;;;;;;;5.83;73.40;100411.93;4310421;81;21225;-92
2021/03/28 08:02:27;;;;;;;12.23;7.92;;;;;;;5.94;72.86;100407.30;4258785;81;21169;-92
2021/03/28 08:09:07;;;;;;;16.20;8.03;;;;;;;6.14;72.59;100418.20;4220234;82;21343;-92
2021/03/28 08:15:37;;;;;;;10.68;7.17;;;;;;;6.78;71.38;100426.28;4213861;82;22413;-89
2021/03/28 08:21:49;;;;;;;10.25;6.78;;;;;;;7.58;69.81;100426.00;4255713;83;22805;-93
2021/03/28 08:28:29;;;;;;;12.33;6.92;;;;;;;7.61;68.19;100429.45;4210120;82;21736;-92
2021/03/28 08:34:54;;;;;;;10.95;6.47;;;;;;;8.34;67.55;100432.52;4220033;84;21232;-93
2021/03/28 08:41:37;;;;;;;10.88;6.47;;;;;;;8.10;65.87;100431.44;4227910;83;21222;-92
2021/03/28 08:48:22;;;;;;;9.90;7.53;;;;;;;7.57;66.01;100441.31;4251784;83;21202;-92
2021/03/28 08:54:41;;;;;;;14.75;8.25;;;;;;;7.45;67.22;100443.87;4244829;83;21705;-92
2021/03/28 09:00:54;;;;;;;11.70;7.10;;;;;;;7.91;66.84;100441.30;4299093;81;21500;-93
2021/03/28 09:07:24;;;;;;;12.85;6.45;;;;;;;9.02;67.30;100436.32;4326005;81;21205;-93
2021/03/28 09:13:50;;;;;;;7.90;5.50;;;;;;;9.17;65.65;100437.14;4332374;81;21185;-92
2021/03/28 09:20:10;;;;;;;11.40;5.60;;;;;;;9.96;63.94;100439.72;4328311;81;21166;-93
2021/03/28 09:27:12;;;;;;;10.25;5.80;;;;;;;10.00;62.89;100437.13;4272137;81;21197;-91
2021/03/28 09:33:37;;;;;;;6.92;4.62;;;;;;;9.58;60.75;100439.10;4324053;81;21234;-93
2021/03/28 09:40:17;;;;;;;7.72;5.37;;;;;;;9.26;60.33;100437.88;4306765;81;21200;-92
2021/03/28 09:46:54;;;;;;;9.53;4.92;;;;;;;8.99;59.85;100447.13;4296525;81;21235;-91
2021/03/28 09:53:28;;;;;;;9.30;5.80;;;;;;;8.92;60.48;100444.91;4456290;78;21203;-92
2021/03/28 09:59:58;;;;;;;18.95;6.90;;;;;;;9.29;60.77;100453.61;4403569;78;21194;-92
2021/03/28 10:06:18;;;;;;;6.28;4.67;;;;;;;9.72;59.28;100440.19;4464937;78;21172;-91
2021/03/28 10:12:28;;;;;;;7.33;4.62;;;;;;;10.13;57.74;100443.69;4462336;78;21505;-91
2021/03/28 10:18:41;;;;;;;6.17;4.30;;;;;;;11.05;56.28;100442.15;4326381;81;21155;-92
2021/03/28 10:25:32;;;;;;;6.45;4.55;;;;;;;12.08;56.04;100440.79;4316864;81;21343;-92
2021/03/28 10:32:04;;;;;;;7.80;4.58;;;;;;;11.74;55.32;100441.95;4320950;81;21153;-92
2021/03/28 11:00:42;;;;;;;6.57;3.70;;;;;;;13.68;49.96;100422.38;4313189;76;28788;-90
2021/03/28 11:07:32;;;;;;;8.03;3.58;;;;;;;13.75;47.65;100421.16;4283908;81;21229;-92
2021/03/28 11:14:15;;;;;;;6.72;3.45;;;;;;;13.55;45.44;100427.78;4202327;82;21249;-91
2021/03/28 11:20:28;;;;;;;6.58;2.90;;;;;;;13.81;43.66;100428.75;4202801;83;21224;-92
2021/03/28 11:26:50;;;;;;;5.65;3.50;;;;;;;14.37;47.32;100419.47;4111982;84;21371;-89
2021/03/28 11:33:04;;;;;;;10.05;4.00;;;;;;;15.55;46.29;100422.58;4222272;82;21350;-91
2021/03/28 11:39:20;;;;;;;9.03;4.28;;;;;;;15.07;42.44;100421.23;4211929;82;21226;-93
2021/03/28 11:45:48;;;;;;;5.80;3.60;;;;;;;14.59;43.80;100403.53;4208502;82;22396;-93
2021/03/28 11:51:56;;;;;;;5.50;3.45;;;;;;;15.35;44.17;100407.29;4215852;83;21205;-90
2021/03/28 11:58:24;;;;;;;8.00;3.70;;;;;;;15.27;37.98;100395.13;4219491;82;22524;-92
2021/03/28 12:04:59;;;;;;;6.30;3.50;;;;;;;14.64;37.39;100383.94;4202220;82;21253;-92
2021/03/28 12:11:42;;;;;;;6.97;3.50;;;;;;;14.67;40.72;100390.09;4192902;83;21245;-91
2021/03/28 12:17:44;;;;;;;4.90;2.90;;;;;;;14.36;40.96;100392.28;4237108;82;21213;-91
2021/03/28 12:23:58;;;;;;;6.12;3.20;;;;;;;13.68;40.15;100387.41;4142466;84;21924;-91
2021/03/28 12:30:02;;;;;;;11.75;5.08;;;;;;;13.61;39.84;100382.31;4202720;83;21260;-92
2021/03/28 12:36:09;;;;;;;8.10;3.67;;;;;;;13.85;40.01;100373.78;4224380;82;21201;-91
2021/03/28 12:42:28;;;;;;;7.47;4.00;;;;;;;13.58;38.45;100381.09;4221879;83;21233;-91
2021/03/28 12:48:35;;;;;;;5.50;3.50;;;;;;;12.91;38.81;100385.64;4215827;82;21822;-92
2021/03/28 12:54:56;;;;;;;7.20;3.85;;;;;;;12.51;38.05;100384.47;4225690;82;21221;-92
2021/03/28 13:01:29;;;;;;;7.30;3.90;;;;;;;11.91;39.75;100381.28;4199079;83;21401;-93
2021/03/28 13:07:36;;;;;;;6.87;4.05;;;;;;;12.40;40.51;100379.87;4211429;82;21216;-92
2021/03/28 13:13:48;;;;;;;11.75;4.83;;;;;;;12.33;39.35;100372.81;4191871;83;21248;-92
2021/03/28 13:19:57;;;;;;;8.68;3.98;;;;;;;11.78;39.26;100369.56;4197968;83;21254;-91
2021/03/28 13:26:18;;;;;;;9.23;4.05;;;;;;;11.66;39.93;100381.16;4211434;83;21216;-91
2021/03/28 13:32:35;;;;;;;8.70;4.25;;;;;;;11.76;39.80;100382.83;4167128;82;21220;-92
2021/03/28 13:38:40;;;;;;;9.70;4.50;;;;;;;11.60;40.04;100373.73;4206447;83;21225;-92
2021/03/28 13:44:53;;;;;;;11.78;4.00;;;;;;;11.72;40.21;100366.86;4231040;82;22037;-92
2021/03/28 13:51:22;;;;;;;7.67;3.60;;;;;;;11.78;38.29;100362.71;4199970;82;21196;-93
2021/03/28 14:33:10;;;;;;;10.68;3.72;;;;;;;11.50;39.22;100363.81;4146151;80;21361;-91
2021/03/28 14:50:35;;;;;;;8.20;4.22;;;;;;;11.30;38.99;100356.00;4404404;76;22351;-90
2021/03/28 14:56:51;;;;;;;10.30;4.20;;;;;;;11.03;39.57;100352.06;4304037;81;22005;-90
2021/03/28 15:03:24;;;;;;;9.43;3.98;;;;;;;10.69;39.89;100362.14;4289246;81;21233;-91
2021/03/28 15:09:43;;;;;;;8.13;3.58;;;;;;;10.45;39.89;100360.75;4287465;81;21205;-90
2021/03/28 15:16:38;;;;;;;7.47;3.22;;;;;;;10.29;40.55;100356.30;4304526;81;21195;-91
2021/03/28 15:22:48;;;;;;;7.85;3.52;;;;;;;10.30;40.70;100349.68;4223491;82;21228;-91
2021/03/28 15:29:00;;;;;;;6.72;2.98;;;;;;;10.53;40.60;100347.53;4216373;82;21831;-90
2021/03/28 15:35:26;;;;;;;4.67;2.50;;;;;;;10.58;40.87;100341.02;4247788;82;22527;-91
2021/03/28 15:41:45;;;;;;;10.30;3.90;;;;;;;10.56;40.35;100341.93;4228041;81;21190;-92
2021/03/28 15:48:14;;;;;;;5.17;2.92;;;;;;;10.48;39.91;100345.58;4219105;82;21192;-91
2021/03/28 16:29:06;;;;;;;8.85;4.90;;;;;;;9.41;41.32;100331.28;4493679;77;21159;-92
2021/03/28 16:46:13;;;;;;;9.58;5.00;;;;;;;8.82;42.71;100333.31;4545349;75;22375;-94
2021/03/28 16:52:25;;;;;;;11.20;4.53;;;;;;;8.59;42.79;100338.02;4328087;81;21191;-91
2021/03/28 18:16:24;;;;;;;42.98;20.43;;;;;;;5.55;48.10;100378.63;4381874;77;73309;-85
2021/03/28 18:33:27;;;;;;;48.42;23.32;;;;;;;4.69;50.50;100384.38;4261765;76;22417;-85
2021/03/28 18:39:50;;;;;;;51.68;25.27;;;;;;;4.39;50.06;100395.27;3974633;85;10000486;-85
2021/03/28 18:46:10;;;;;;;48.20;24.15;;;;;;;4.18;50.41;100398.67;4139047;84;22224;-85
2021/03/28 18:52:21;;;;;;;64.25;27.05;;;;;;;4.05;50.85;100396.73;4126394;84;21208;-86
2021/03/28 18:58:29;;;;;;;61.20;29.07;;;;;;;3.85;51.23;100399.25;4116623;84;21213;-86
2021/03/28 19:04:38;;;;;;;90.83;42.10;;;;;;;3.56;51.58;100400.52;4071833;85;21223;-85
2021/03/28 19:10:40;;;;;;;51.73;24.47;;;;;;;3.42;52.00;100399.66;4071990;85;21380;-85
2021/03/28 19:16:44;;;;;;;50.08;24.43;;;;;;;3.30;52.43;100406.08;4070516;85;21702;-85
2021/03/28 19:22:54;;;;;;;50.38;23.77;;;;;;;3.17;53.18;100412.48;4101579;85;21221;-85
2021/03/28 19:29:15;;;;;;;42.23;21.30;;;;;;;3.01;53.11;100409.73;4024689;86;21201;-85
2021/03/28 19:58:34;;;;;;;76.53;34.95;;;;;;;2.77;56.21;100408.16;4347384;77;21177;-86
2021/03/28 20:11:22;;;;;;;78.57;33.18;;;;;;;2.54;56.55;100419.77;4179035;80;10000575;-85
2021/03/28 20:17:24;;;;;;;61.18;29.75;;;;;;;2.41;57.02;100416.42;4282977;80;21241;-86
2021/03/28 20:23:27;;;;;;;56.70;28.12;;;;;;;2.01;57.86;100410.88;4293311;80;21320;-86
2021/03/28 20:29:59;;;;;;;66.95;30.60;;;;;;;2.17;57.73;100433.96;4307206;80;21166;-86
2021/03/28 20:36:04;;;;;;;66.85;31.42;;;;;;;2.17;57.73;100433.96;4317434;80;21355;-86
2021/03/28 20:42:16;;;;;;;79.65;33.80;;;;;;;2.14;58.06;100437.23;4302285;81;22425;-85
2021/03/28 20:48:21;;;;;;;70.42;32.67;;;;;;;1.78;58.25;100437.28;4329215;80;21226;-86
2021/03/28 20:54:42;;;;;;;79.58;35.55;;;;;;;1.78;58.25;100437.28;4321301;80;21184;-85
2021/03/28 21:00:44;;;;;;;81.15;34.83;;;;;;;1.68;58.98;100448.72;4306910;80;21235;-86
2021/03/28 21:06:53;;;;;;;88.12;35.73;;;;;;;1.56;58.91;100454.45;4340515;80;21176;-86
2021/03/28 21:12:55;;;;;;;73.35;32.98;;;;;;;1.45;59.25;100451.56;4370233;79;21153;-85
2021/03/28 21:19:01;;;;;;;75.40;34.15;;;;;;;1.33;59.81;100456.50;4373815;79;21621;-86
2021/03/28 21:25:09;;;;;;;68.63;33.23;;;;;;;1.22;59.91;100457.08;4353686;79;21539;-86
2021/03/28 23:02:22;;;;;;;88.87;37.53;;;;;;;-0.21;65.29;100445.38;4343030;79;73720;-90
2021/03/28 23:08:24;;;;;;;92.30;38.37;;;;;;;-0.08;64.78;100448.86;4312747;81;21199;-89
2021/03/28 23:14:26;;;;;;;88.73;37.90;;;;;;;-0.15;64.95;100452.91;4328847;80;21209;-90
2021/03/28 23:20:43;;;;;;;88.17;36.37;;;;;;;-0.32;64.95;100451.02;4369746;79;21184;-90
2021/03/28 23:26:48;;;;;;;89.50;35.00;;;;;;;-0.41;65.31;100449.39;4267604;82;21194;-90
2021/03/28 23:32:51;;;;;;;93.10;40.63;;;;;;;-0.54;65.51;100447.24;4145557;83;21673;-91
2021/03/28 23:38:54;;;;;;;90.10;38.90;;;;;;;-0.65;65.90;100434.85;4318448;80;21181;-91
2021/03/28 23:44:58;;;;;;;90.00;40.60;;;;;;;-0.56;66.59;100429.73;4242346;81;21193;-90
2021/03/28 23:51:03;;;;;;;77.23;35.10;;;;;;;-0.40;66.54;100432.72;4177504;82;21608;-92
2021/03/28 23:57:07;;;;;;;92.35;43.25;;;;;;;-0.40;67.04;100432.19;4167274;83;21201;-91
